createdAt,value
2022-08-31T00:00:30.492Z,18.90
2022-08-31T00:05:35.112Z,18.90
2022-08-31T00:10:43.287Z,18.90
2022-08-31T00:15:48.397Z,18.90
2022-08-31T00:20:56.699Z,19.00
2022-08-31T00:25:59.991Z,19.00
2022-08-31T00:31:03.379Z,19.00
2022-08-31T00:36:10.680Z,19.00
2022-08-31T00:41:13.912Z,18.60
2022-08-31T00:46:21.794Z,18.40
2022-08-31T00:51:27.687Z,18.20
2022-08-31T00:56:31.518Z,18.10
2022-08-31T01:01:34.979Z,18.00
2022-08-31T01:06:40.818Z,17.90
2022-08-31T01:11:44.451Z,17.90
2022-08-31T01:16:52.427Z,17.80
2022-08-31T01:22:04.068Z,17.70
2022-08-31T01:27:09.179Z,17.60
2022-08-31T01:32:13.040Z,17.50
2022-08-31T01:37:16.549Z,17.40
2022-08-31T01:42:21.654Z,17.30
2022-08-31T01:47:25.474Z,17.20
2022-08-31T01:52:30.211Z,17.10
2022-08-31T01:57:35.013Z,17.00
2022-08-31T02:02:38.440Z,16.90
2022-08-31T02:07:41.961Z,16.90
2022-08-31T02:12:46.736Z,16.80
2022-08-31T02:17:52.674Z,16.70
2022-08-31T02:22:56.199Z,16.70
2022-08-31T02:28:01.355Z,16.70
2022-08-31T02:33:08.108Z,16.60
2022-08-31T02:38:12.257Z,16.60
2022-08-31T02:43:24.635Z,16.50
2022-08-31T02:48:28.559Z,16.50
2022-08-31T02:53:31.906Z,16.50
2022-08-31T02:58:37.055Z,16.50
2022-08-31T03:03:40.308Z,16.40
2022-08-31T03:08:47.607Z,16.40
2022-08-31T03:13:56.449Z,16.40
2022-08-31T03:19:01.695Z,16.40
2022-08-31T03:24:05.381Z,16.40
2022-08-31T03:29:10.085Z,16.30
2022-08-31T03:34:16.848Z,16.30
2022-08-31T03:39:21.051Z,16.30
2022-08-31T03:44:25.648Z,16.30
2022-08-31T03:49:28.905Z,16.20
2022-08-31T03:54:32.337Z,16.10
2022-08-31T03:59:37.533Z,16.10
2022-08-31T04:04:45.715Z,16.10
2022-08-31T04:09:50.252Z,16.10
2022-08-31T04:14:55.522Z,16.00
2022-08-31T04:19:58.703Z,15.90
2022-08-31T04:25:02.050Z,15.90
2022-08-31T04:30:09.239Z,15.90
2022-08-31T04:35:12.420Z,15.90
2022-08-31T04:40:20.420Z,15.90
2022-08-31T04:45:30.987Z,15.90
2022-08-31T04:50:34.238Z,15.90
2022-08-31T04:55:41.218Z,15.90
2022-08-31T05:00:45.867Z,15.80
2022-08-31T05:05:50.887Z,15.80
2022-08-31T05:10:54.207Z,15.80
2022-08-31T05:15:59.162Z,15.70
2022-08-31T05:21:10.644Z,15.70
2022-08-31T05:26:21.536Z,15.70
2022-08-31T05:31:31.024Z,15.70
2022-08-31T05:36:35.033Z,15.70
2022-08-31T05:41:38.516Z,15.70
2022-08-31T05:46:43.527Z,15.60
2022-08-31T05:51:46.867Z,15.70
2022-08-31T05:56:50.267Z,15.60
2022-08-31T06:01:55.477Z,15.60
2022-08-31T06:06:58.782Z,15.60
2022-08-31T06:12:01.981Z,15.60
2022-08-31T06:17:07.216Z,15.60
2022-08-31T06:22:10.901Z,15.70
2022-08-31T06:27:14.208Z,15.70
2022-08-31T06:32:20.074Z,15.70
2022-08-31T06:37:23.284Z,15.70
2022-08-31T06:42:26.689Z,15.80
2022-08-31T06:47:31.972Z,15.80
2022-08-31T06:52:38.836Z,15.80
2022-08-31T06:57:42.409Z,15.80
2022-08-31T07:02:53.192Z,15.80
2022-08-31T07:08:01.387Z,15.90
2022-08-31T07:13:04.599Z,15.80
2022-08-31T07:18:10.544Z,15.90
2022-08-31T07:23:13.851Z,15.90
2022-08-31T07:28:17.067Z,15.90
2022-08-31T07:33:22.773Z,15.80
2022-08-31T07:38:43.167Z,15.90
2022-08-31T07:43:46.415Z,15.90
2022-08-31T07:48:52.541Z,16.00
2022-08-31T07:53:57.085Z,16.00
2022-08-31T07:59:00.512Z,16.00
2022-08-31T08:04:06.361Z,16.00
2022-08-31T08:09:24.017Z,16.10
2022-08-31T08:14:29.772Z,16.30
2022-08-31T08:19:35.601Z,16.40
2022-08-31T08:24:40.161Z,16.40
2022-08-31T08:29:50.882Z,16.70
2022-08-31T08:34:55.586Z,16.90
2022-08-31T08:39:59.808Z,17.00
2022-08-31T08:45:04.377Z,17.00
2022-08-31T08:50:10.667Z,17.10
2022-08-31T08:55:17.059Z,17.20
2022-08-31T09:00:24.934Z,17.40
2022-08-31T09:05:53.116Z,17.50
2022-08-31T09:11:06.445Z,17.70
2022-08-31T09:16:24.832Z,18.00
2022-08-31T09:21:34.557Z,18.10
2022-08-31T09:26:54.400Z,18.30
2022-08-31T09:32:06.432Z,18.90
2022-08-31T09:37:17.372Z,19.40
2022-08-31T09:42:31.529Z,20.10
2022-08-31T09:47:48.713Z,20.60
2022-08-31T09:53:24.058Z,20.60
2022-08-31T09:58:30.912Z,20.10
2022-08-31T10:03:36.050Z,19.80
2022-08-31T10:08:46.331Z,19.60
2022-08-31T10:13:58.813Z,19.50
2022-08-31T10:19:06.429Z,19.40
2022-08-31T10:24:28.435Z,19.40
2022-08-31T10:29:39.957Z,19.60
2022-08-31T10:34:57.012Z,19.90
2022-08-31T10:40:07.824Z,20.40
2022-08-31T10:45:18.682Z,20.60
2022-08-31T10:50:29.495Z,21.10
2022-08-31T10:55:41.548Z,21.70
2022-08-31T11:00:52.009Z,22.20
2022-08-31T11:06:00.701Z,22.10
2022-08-31T11:11:09.174Z,22.40
2022-08-31T11:16:32.849Z,22.70
2022-08-31T11:22:37.605Z,22.10
2022-08-31T11:27:45.541Z,21.60
2022-08-31T11:32:54.171Z,20.90
2022-08-31T11:38:00.273Z,20.60
2022-08-31T11:43:06.362Z,20.40
2022-08-31T11:48:30.178Z,20.70
2022-08-31T11:53:37.551Z,21.00
2022-08-31T11:58:44.905Z,21.30
2022-08-31T12:03:55.780Z,21.90
2022-08-31T12:09:21.028Z,22.40
2022-08-31T12:14:33.286Z,22.30
2022-08-31T12:20:02.135Z,22.30
2022-08-31T12:25:17.791Z,22.50
2022-08-31T12:35:56.463Z,23.20
2022-08-31T12:40:59.789Z,23.70
2022-08-31T12:46:36.015Z,24.00
2022-08-31T12:51:45.704Z,23.60
2022-08-31T12:56:57.972Z,23.30
2022-08-31T13:02:02.862Z,23.00
2022-08-31T13:07:20.271Z,22.20
2022-08-31T13:12:24.980Z,22.20
2022-08-31T13:17:35.174Z,22.20
2022-08-31T13:22:41.850Z,22.40
2022-08-31T13:27:50.331Z,22.10
2022-08-31T13:32:55.553Z,21.80
2022-08-31T13:38:05.392Z,21.80
2022-08-31T13:43:10.848Z,21.80
2022-08-31T13:48:25.176Z,21.50
2022-08-31T13:53:40.684Z,21.40
2022-08-31T13:58:44.315Z,21.40
2022-08-31T14:03:58.278Z,21.40
2022-08-31T14:09:16.619Z,21.30
2022-08-31T14:14:35.649Z,21.00
2022-08-31T14:19:40.843Z,20.90
2022-08-31T14:24:45.077Z,20.50
2022-08-31T14:29:52.339Z,20.30
2022-08-31T14:34:57.971Z,20.40
2022-08-31T14:40:07.553Z,20.40
2022-08-31T14:45:19.049Z,20.60
2022-08-31T14:50:27.228Z,20.70
2022-08-31T14:55:31.079Z,20.40
2022-08-31T15:00:38.047Z,20.30
2022-08-31T15:05:44.144Z,20.40
2022-08-31T15:10:47.573Z,20.80
2022-08-31T15:15:51.501Z,21.00
2022-08-31T15:20:56.307Z,20.50
2022-08-31T15:26:06.395Z,20.00
2022-08-31T15:31:13.461Z,19.90
2022-08-31T15:36:23.931Z,20.20
2022-08-31T15:41:29.558Z,20.20
2022-08-31T15:46:50.429Z,20.00
2022-08-31T15:51:55.464Z,20.20
2022-08-31T15:56:58.909Z,20.30
2022-08-31T16:02:03.056Z,20.40
2022-08-31T16:07:09.703Z,20.60
2022-08-31T16:12:13.859Z,20.90
2022-08-31T16:17:19.239Z,21.30
2022-08-31T16:22:28.303Z,21.20
2022-08-31T16:27:35.270Z,21.10
2022-08-31T16:32:38.618Z,20.80
2022-08-31T16:37:43.316Z,20.50
2022-08-31T16:42:46.644Z,20.30
2022-08-31T16:48:09.955Z,20.00
2022-08-31T16:53:16.438Z,19.80
2022-08-31T16:58:34.854Z,19.50
2022-08-31T17:03:48.193Z,19.40
2022-08-31T17:08:56.638Z,19.30
2022-08-31T17:14:01.831Z,19.10
2022-08-31T17:19:10.840Z,19.00
2022-08-31T17:24:16.287Z,18.80
2022-08-31T17:29:23.672Z,18.70
2022-08-31T17:34:29.136Z,18.60
2022-08-31T17:39:33.963Z,18.40
2022-08-31T17:44:37.462Z,18.10
2022-08-31T17:49:46.306Z,17.90
2022-08-31T17:54:52.405Z,17.60
2022-08-31T17:59:56.041Z,17.30
2022-08-31T18:04:59.628Z,17.10
2022-08-31T18:10:04.763Z,16.80
2022-08-31T18:15:09.129Z,16.60
2022-08-31T18:20:12.958Z,16.40
2022-08-31T18:25:19.692Z,16.30
2022-08-31T18:30:23.120Z,16.20
2022-08-31T18:35:29.588Z,16.00
2022-08-31T18:40:56.620Z,16.00
2022-08-31T18:46:00.416Z,15.90
2022-08-31T18:51:03.934Z,15.70
2022-08-31T18:56:20.155Z,15.60
2022-08-31T19:01:23.801Z,15.40
2022-08-31T19:06:29.448Z,15.30
2022-08-31T19:12:02.308Z,15.20
2022-08-31T19:17:06.339Z,15.10
2022-08-31T19:22:09.741Z,15.10
2022-08-31T19:27:15.110Z,14.90
2022-08-31T19:32:18.665Z,14.90
2022-08-31T19:37:22.727Z,14.90
2022-08-31T19:47:52.029Z,14.70
2022-08-31T19:52:55.367Z,14.60
2022-08-31T19:58:00.071Z,14.60
2022-08-31T20:03:04.516Z,14.50
2022-08-31T20:08:07.830Z,14.40
2022-08-31T20:13:13.574Z,14.40
2022-08-31T20:18:18.092Z,14.50
2022-08-31T20:23:28.718Z,14.40
2022-08-31T20:28:36.596Z,14.30
2022-08-31T20:33:43.289Z,14.20
2022-08-31T20:38:47.112Z,14.10
2022-08-31T20:43:51.859Z,14.10
2022-08-31T20:49:12.761Z,14.00
2022-08-31T20:54:19.660Z,13.90
2022-08-31T20:59:25.206Z,13.90
2022-08-31T21:04:29.903Z,13.90
2022-08-31T21:09:33.216Z,13.90
2022-08-31T21:14:38.730Z,13.80
2022-08-31T21:19:42.238Z,13.90
2022-08-31T21:24:46.614Z,13.90
2022-08-31T21:29:54.533Z,13.90
2022-08-31T21:34:58.295Z,13.90
2022-08-31T21:40:01.770Z,14.00
2022-08-31T21:45:07.575Z,14.00
2022-08-31T21:50:11.084Z,13.90
2022-08-31T21:55:18.081Z,13.90
2022-08-31T22:00:29.540Z,13.70
2022-08-31T22:05:33.005Z,13.70
2022-08-31T22:10:41.028Z,13.70
2022-08-31T22:15:48.152Z,13.70
2022-08-31T22:20:51.479Z,13.80
2022-08-31T22:25:56.699Z,13.90
2022-08-31T22:31:02.361Z,13.80
2022-08-31T22:36:06.341Z,13.60
2022-08-31T22:41:10.356Z,13.50
2022-08-31T22:46:17.372Z,13.50
2022-08-31T22:51:22.771Z,13.40
2022-08-31T22:56:28.667Z,13.40
2022-08-31T23:01:42.013Z,13.40
2022-08-31T23:06:45.365Z,13.30
2022-08-31T23:11:51.677Z,13.20
2022-08-31T23:16:59.379Z,13.10
2022-08-31T23:22:07.631Z,13.00
2022-08-31T23:27:12.014Z,12.90
2022-08-31T23:32:21.021Z,12.80
2022-08-31T23:37:27.612Z,12.80
2022-08-31T23:42:31.080Z,12.70
2022-08-31T23:47:35.909Z,12.70
2022-08-31T23:52:41.673Z,12.80
2022-08-31T23:57:47.611Z,12.80
